createdAt,value
2023-03-16T00:02:41.964Z,9.00
2023-03-16T00:13:03.193Z,9.47
2023-03-16T00:23:28.319Z,14.43
2023-03-16T00:33:49.751Z,14.40
2023-03-16T00:44:11.926Z,11.20
2023-03-16T00:54:33.804Z,10.05
2023-03-16T01:04:55.134Z,16.17
2023-03-16T01:15:16.192Z,11.07
2023-03-16T01:25:37.698Z,11.23
2023-03-16T01:36:04.194Z,17.40
2023-03-16T01:46:34.227Z,10.37
2023-03-16T01:57:08.283Z,12.37
2023-03-16T02:07:35.070Z,10.17
2023-03-16T02:18:00.171Z,9.88
2023-03-16T02:28:48.604Z,10.70
2023-03-16T02:39:09.872Z,12.47
2023-03-16T02:49:45.294Z,10.90
2023-03-16T03:00:12.316Z,13.27
2023-03-16T03:10:34.915Z,15.97
2023-03-16T03:20:56.384Z,15.73
2023-03-16T03:31:22.183Z,16.60
2023-03-16T03:41:45.561Z,17.23
2023-03-16T03:52:07.290Z,23.13
2023-03-16T04:02:29.297Z,18.53
2023-03-16T04:12:51.047Z,17.42
2023-03-16T04:23:12.415Z,18.93
2023-03-16T04:33:37.958Z,15.40
2023-03-16T04:44:00.383Z,18.83
2023-03-16T04:54:22.195Z,19.50
2023-03-16T05:04:43.899Z,10.18
2023-03-16T05:15:08.222Z,17.73
2023-03-16T05:25:32.400Z,15.27
2023-03-16T05:35:58.126Z,9.18
2023-03-16T05:46:20.938Z,21.37
2023-03-16T05:56:43.718Z,13.10
2023-03-16T06:07:05.540Z,19.50
2023-03-16T06:17:28.192Z,7.90
2023-03-16T06:27:50.474Z,14.47
2023-03-16T06:38:12.998Z,15.88
2023-03-16T06:48:58.204Z,21.13
2023-03-16T06:59:19.939Z,15.50
2023-03-16T07:09:54.681Z,29.27
2023-03-16T07:20:18.638Z,45.00
2023-03-16T07:30:41.303Z,40.00
2023-03-16T07:41:05.792Z,25.65
2023-03-16T07:51:28.914Z,20.77
2023-03-16T08:01:50.744Z,15.90
2023-03-16T08:12:12.954Z,11.93
2023-03-16T08:22:37.257Z,18.90
2023-03-16T08:33:01.613Z,15.37
2023-03-16T08:43:26.821Z,21.73
2023-03-16T08:53:48.439Z,9.03
2023-03-16T09:04:09.984Z,16.00
2023-03-16T09:14:25.748Z,17.37
2023-03-16T09:24:48.484Z,14.23
2023-03-16T09:35:09.897Z,11.57
2023-03-16T09:45:36.198Z,16.37
2023-03-16T09:56:10.900Z,18.75
2023-03-16T10:06:33.211Z,12.77
2023-03-16T10:17:06.367Z,19.13
2023-03-16T10:27:42.890Z,13.57
2023-03-16T10:38:04.161Z,12.27
2023-03-16T10:48:28.425Z,17.33
2023-03-16T10:58:49.846Z,15.07
2023-03-16T11:09:23.153Z,8.65
2023-03-16T11:19:57.744Z,16.70
2023-03-16T11:30:33.898Z,10.20
2023-03-16T11:41:21.532Z,16.80
2023-03-16T11:52:17.317Z,8.17
2023-03-16T12:03:18.038Z,9.80
2023-03-16T12:14:09.160Z,19.88
2023-03-16T12:24:45.504Z,10.03
2023-03-16T12:35:37.574Z,13.97
2023-03-16T12:46:04.776Z,12.73
2023-03-16T12:56:33.899Z,10.73
2023-03-16T13:07:28.401Z,17.33
2023-03-16T13:18:04.470Z,8.63
2023-03-16T13:28:31.707Z,14.02
2023-03-16T13:39:16.369Z,9.30
2023-03-16T13:50:04.582Z,6.80
2023-03-16T14:00:35.410Z,9.63
2023-03-16T14:11:00.607Z,7.33
2023-03-16T14:21:27.686Z,15.33
2023-03-16T14:31:49.740Z,9.33
2023-03-16T14:42:30.965Z,9.50
2023-03-16T14:52:56.567Z,6.67
2023-03-16T15:03:18.690Z,9.73
2023-03-16T15:13:40.002Z,7.13
2023-03-16T15:24:01.485Z,5.53
2023-03-16T15:34:22.802Z,10.43
2023-03-16T15:44:46.113Z,6.85
2023-03-16T15:55:18.026Z,8.00
2023-03-16T16:05:39.993Z,6.03
2023-03-16T16:16:01.505Z,9.57
2023-03-16T16:26:46.944Z,6.10
2023-03-16T16:37:10.577Z,6.07
2023-03-16T16:47:31.892Z,6.97
2023-03-16T16:57:55.288Z,7.22
2023-03-16T17:08:17.126Z,5.40
2023-03-16T17:18:39.154Z,7.80
2023-03-16T17:29:03.238Z,5.90
2023-03-16T17:39:34.525Z,5.10
2023-03-16T17:49:57.153Z,7.50
2023-03-16T18:00:33.172Z,10.03
2023-03-16T18:10:58.286Z,6.40
2023-03-16T18:21:24.593Z,5.27
2023-03-16T18:31:47.857Z,9.23
2023-03-16T18:42:23.250Z,7.72
2023-03-16T18:52:45.072Z,6.03
2023-03-16T19:03:09.264Z,2.80
2023-03-16T19:13:30.539Z,4.78
2023-03-16T19:24:01.617Z,3.53
2023-03-16T19:34:23.453Z,2.93
2023-03-16T19:44:48.943Z,4.50
2023-03-16T19:55:19.162Z,4.93
2023-03-16T20:05:40.519Z,3.73
2023-03-16T20:16:03.343Z,3.30
2023-03-16T20:26:32.259Z,5.72
2023-03-16T20:36:54.230Z,2.17
2023-03-16T20:47:18.247Z,3.60
2023-03-16T20:57:42.564Z,4.28
2023-03-16T21:08:04.006Z,2.47
2023-03-16T21:18:25.835Z,2.77
2023-03-16T21:28:57.740Z,1.40
2023-03-16T21:39:23.643Z,0.82
2023-03-16T21:49:45.973Z,2.47
2023-03-16T22:00:08.454Z,1.33
2023-03-16T22:10:30.346Z,2.25
2023-03-16T22:20:51.887Z,1.90
2023-03-16T22:31:17.069Z,1.53
2023-03-16T22:41:38.604Z,1.75
2023-03-16T22:51:59.849Z,3.40
2023-03-16T23:02:26.789Z,4.53
2023-03-16T23:12:49.384Z,1.50
2023-03-16T23:23:11.292Z,2.80
2023-03-16T23:33:32.406Z,2.33
2023-03-16T23:43:54.269Z,1.47
2023-03-16T23:54:27.558Z,2.08
